Haines, AK

4:47 AM AKST on January 26, 2015 (GMT -0900)
Pyramid Island View | Change Station
CLOSE
Current Station
Personal Weather Station
Location: Haines, AK
Elevation: 72 ft
Nearby Weather Stations

Elev 72 ft 59.20 °N, 135.44 °W | Updated 26 seconds ago

Overcast
Overcast
35.4 °F
Feels Like 31 °F
N
4.7
Wind Variable Wind from SE
Gusts 4.7 mph

Today
High -- | Low -- °F
--% Chance of Precip.
Yesterday
High -- | Low -- °F
Precip. -- in
8:24 AM 4:05 PM
Waxing Crescent, 43% visible
Pressure 29.87 in
Visibility 10.0 miles
Clouds Few 1300 ft
Mostly Cloudy 1700 ft
Overcast 6500 ft
Windchill 31 °F
Dew Point 34 °F
Humidity 94%
Rainfall 0.00 in
Snow Depth Not available.
UV 0 out of 12
Pollen Not available.
Air Quality Not available.
Flu Activity Not available.
SPECI PAHN 261307Z AUTO 09009G19KT 10SM FEW013 BKN017 OVC065 02/M01 A2987 RMK AO2 T00221006 TSNO

More Conditions Fewer Conditions

Pressure 29.87 in
Visibility 10.0 miles
Clouds Few 1300 ft
Mostly Cloudy 1700 ft
Overcast 6500 ft
Windchill 31 °F
Dew Point 34 °F
Humidity 94%
Rainfall 0.00 in
Snow Depth Not available.
UV 0 out of 12
Pollen Not available.
Air Quality Not available.
Flu Activity Not available.
SPECI PAHN 261307Z AUTO 09009G19KT 10SM FEW013 BKN017 OVC065 02/M01 A2987 RMK AO2 T00221006 TSNO

More Conditions Fewer Conditions

10-Day Weather Forecast

Almanac

Astronomy

Jan. 26, 2015 Rise Set
Actual Time
Civil Twilight
Nautical Twilight
Astronomical Twilight
Moon
Length of Visible Light
Length of Day
Tomorrow will be .
, % of the Moon is Illuminated

Today's Extremes

State Highs State Lows

Community

WunderPhotos

Upload Photos

1,790,200 photos uploaded!

WunderBlogs® & News

Nearby

Air Quality

  Air Quality AQ Index Pollutant
Not available.

Snow Depth

Station Depth Elevation

Earthquake Activity

City Distance Mag. Time & Date
Minimum magnitude displayed is 2.5.

Coastal Water Temperatures

Place Temperature

Nearby Weather Stations